Date,TemperatureHighF,TemperatureAvgF,TemperatureLowF,DewpointHighF,DewpointAvgF,DewpointLowF,HumidityHigh,HumidityAvg,HumidityLow,PressureMaxIn,PressureMinIn,WindSpeedMaxMPH,WindSpeedAvgMPH,GustSpeedMaxMPH,PrecipitationSumIn
2013-1-1,45.0,42.2,38.8,40.7,37.2,30.7,92,83,57,30.00,29.86,7,0,9,0.11
2013-1-2,40.5,36.5,30.6,36.6,30.9,26.2,93,81,60,30.20,29.95,15,1,17,0.11
2013-1-3,37.9,31.4,24.7,27.4,24.2,19.3,90,75,58,30.23,30.14,6,0,7,0.00
2013-1-4,45.1,31.7,22.2,31.5,24.9,20.2,93,78,46,30.21,30.09,18,1,18,0.01
2013-1-5,45.6,33.2,24.7,33.8,26.5,22.5,92,78,48,30.36,30.16,14,1,14,0.00
2013-1-6,49.4,40.8,33.4,36.7,33.6,30.1,91,77,50,30.22,30.01,11,1,12,0.02
2013-1-7,47.6,38.7,27.6,35.4,30.7,24.7,94,75,52,30.42,30.11,22,2,25,0.00
2013-1-8,52.8,38.3,25.1,40.6,32.1,23.1,94,80,52,30.44,30.35,16,0,16,0.00
2013-1-9,63.2,49.0,33.5,52.9,43.7,31.7,95,83,67,30.38,30.20,14,1,14,0.00
2013-1-10,52.4,44.0,33.7,41.7,34.9,31.4,95,72,46,30.55,30.34,11,1,12,0.00
2013-1-11,51.6,43.2,31.2,50.4,41.1,29.1,96,92,84,30.48,30.06,14,1,15,0.01
2013-1-12,54.8,47.6,43.6,50.0,45.7,42.3,96,94,80,30.15,30.06,12,1,13,0.00
2013-1-13,60.6,51.0,43.9,59.5,50.0,42.8,98,97,94,30.12,29.98,11,1,11,0.00
2013-1-14,63.7,57.2,45.4,61.0,54.7,42.3,95,91,87,30.22,29.97,12,1,12,0.71
2013-1-15,45.3,41.9,39.5,42.3,40.4,38.1,100,95,88,30.28,30.08,12,1,12,0.95
2013-1-16,46.4,41.0,37.2,45.3,39.8,35.9,96,95,94,30.09,29.85,15,1,16,0.27
2013-1-17,44.1,40.2,32.8,43.3,38.9,31.5,100,95,92,30.11,29.93,8,0,9,1.14
2013-1-18,38.9,33.3,26.3,32.9,27.7,19.9,96,82,48,30.51,30.01,18,1,18,0.27
2013-1-19,51.7,39.1,26.2,35.3,30.1,24.3,100,72,48,30.46,30.03,16,1,16,0.02
2013-1-20,59.0,46.6,32.1,40.1,34.1,28.5,87,63,43,30.04,29.83,23,2,25,0.00
2013-1-21,47.7,36.9,26.0,38.7,29.9,23.4,92,77,55,30.08,29.75,20,2,23,0.00
2013-1-22,35.8,26.9,20.3,24.8,10.5,2.3,65,50,34,30.27,29.88,25,5,26,0.00
2013-1-23,28.5,22.0,12.3,17.3,8.4,4.6,80,57,37,30.34,30.11,19,2,20,0.00
2013-1-24,27.7,23.1,13.2,22.8,14.9,7.1,91,72,46,30.50,30.00,24,4,27,0.00
2013-1-25,27.0,19.3,10.8,21.8,12.9,6.4,95,77,45,30.50,30.06,6,1,9,0.00
2013-1-26,36.6,29.2,23.1,24.8,22.6,19.5,90,77,58,30.40,30.06,19,2,19,0.07
2013-1-27,37.1,29.6,24.7,25.1,22.6,20.7,91,76,57,30.58,30.40,11,1,11,0.03
2013-1-28,50.1,38.9,26.8,44.2,34.0,24.5,92,83,73,30.50,30.06,14,1,16,0.20
2013-1-29,66.7,52.7,41.7,55.0,47.2,39.3,95,82,64,30.12,30.00,14,1,15,0.00
2013-1-30,73.0,63.9,47.5,62.9,58.5,45.3,97,83,68,30.00,29.33,29,4,29,0.00
2013-1-31,67.4,49.1,30.3,62.8,35.0,19.8,93,60,38,29.93,29.17,32,8,33,0.59
2013-2-1,38.6,31.0,23.6,27.5,17.7,9.6,83,58,43,30.36,29.76,32,6,32,0.00
2013-2-2,34.4,27.1,17.3,23.4,14.2,9.8,80,59,40,30.37,29.97,14,1,16,0.00
2013-2-3,36.4,31.9,27.0,29.5,25.7,22.5,92,78,61,29.98,29.81,8,0,9,0.00
2013-2-4,38.4,32.3,27.6,28.6,20.9,15.1,88,63,50,30.11,29.90,15,1,15,0.00
2013-2-5,50.9,43.0,33.2,37.5,32.3,27.8,91,67,55,29.90,29.81,12,1,12,0.00
2013-2-6,47.2,35.9,27.4,38.7,30.5,25.6,100,82,61,30.33,29.90,10,0,11,0.00
2013-2-7,41.9,35.3,25.9,36.8,30.1,23.9,94,82,67,30.41,30.14,15,1,15,0.03
2013-2-8,44.2,40.9,38.4,42.6,38.1,26.5,96,90,62,30.14,29.64,30,6,30,1.42
2013-2-9,42.0,35.1,25.3,26.9,24.2,21.5,86,65,49,30.36,29.87,35,9,35,0.00
2013-2-10,41.2,32.6,21.1,36.9,24.6,18.2,92,74,45,30.48,30.26,14,1,14,0.00
2013-2-11,61.6,54.0,41.1,57.7,50.5,36.6,95,88,74,30.26,29.74,19,3,19,0.08
2013-2-12,57.3,47.5,37.0,49.1,37.7,32.0,95,71,43,29.98,29.76,16,2,16,0.00
2013-2-13,45.8,42.2,38.6,42.9,39.5,36.3,95,90,83,29.91,29.58,14,1,16,0.12
2013-2-14,48.7,39.3,31.4,36.6,33.4,29.2,93,81,53,30.03,29.71,16,2,16,0.00
2013-2-15,58.6,42.9,28.5,43.2,35.2,27.0,96,76,46,30.04,29.89,18,2,18,0.01
2013-2-16,42.6,37.2,33.7,37.1,33.5,25.0,93,87,68,29.97,29.76,18,2,20,0.30
2013-2-17,34.4,30.3,26.2,25.3,15.7,9.1,69,55,41,30.19,29.76,32,9,32,0.00
2013-2-18,42.9,29.6,18.1,25.5,15.8,9.5,86,58,33,30.37,30.19,16,2,16,0.00
2013-2-19,52.0,43.1,27.5,48.5,37.6,24.4,93,81,70,30.21,29.74,16,1,16,0.06
2013-2-20,41.6,34.9,26.9,37.6,25.9,17.3,95,72,51,30.12,29.82,17,2,18,0.01
2013-2-21,39.4,32.4,25.4,23.9,19.2,15.1,67,58,50,30.27,30.10,24,5,26,0.00
2013-2-22,37.9,34.0,30.8,34.9,27.5,21.1,93,77,62,30.35,30.17,13,1,13,0.06
2013-2-23,42.8,40.3,36.7,42.0,39.1,34.9,97,96,93,30.17,29.77,15,2,15,0.28
2013-2-24,52.4,44.6,36.1,43.6,38.9,24.0,97,82,61,30.07,29.74,20,3,20,0.00
2013-2-25,42.8,35.6,27.4,29.3,25.7,23.3,89,68,55,30.20,30.07,13,1,13,0.00
2013-2-26,54.2,39.6,26.7,53.1,37.5,24.5,96,92,85,30.20,29.52,27,4,30,1.21
2013-2-27,58.6,49.5,38.2,50.6,44.6,36.1,97,84,56,29.68,29.48,17,2,19,0.00
2013-2-28,46.0,41.6,38.2,39.7,35.8,31.4,94,80,57,29.71,29.59,16,1,17,0.02
2013-3-1,45.1,41.4,35.2,33.2,31.0,28.5,84,67,56,29.84,29.70,17,3,18,0.00
2013-3-2,39.3,36.5,32.9,30.5,26.5,21.8,72,67,60,29.86,29.78,18,4,19,0.00
2013-3-3,40.8,34.0,27.1,26.0,22.8,20.5,78,64,49,29.88,29.76,24,4,24,0.00
2013-3-4,45.0,34.9,28.3,27.3,22.1,19.3,81,60,43,30.02,29.88,23,5,25,0.00
2013-3-5,44.8,37.1,28.1,34.9,27.3,22.7,92,69,47,30.07,29.75,14,2,14,0.26
2013-3-6,44.4,39.9,36.4,42.5,37.6,33.7,94,92,77,29.87,29.30,31,6,33,2.47
2013-3-7,48.9,43.2,38.6,34.4,31.8,30.1,81,64,50,30.09,29.87,27,7,27,0.00
2013-3-8,46.7,42.1,37.3,33.5,31.2,28.8,77,65,55,30.19,30.05,31,7,31,0.00
2013-3-9,57.9,44.1,31.3,35.1,29.5,25.7,82,58,31,30.29,30.17,17,2,17,0.00
2013-3-10,52.9,41.2,27.4,42.2,32.4,25.1,93,74,36,30.32,30.24,14,2,14,0.00
2013-3-11,60.4,49.8,37.4,51.8,45.1,36.1,97,85,72,30.26,29.98,23,4,27,0.00
2013-3-12,65.2,54.8,45.6,62.2,51.0,36.7,97,87,66,29.99,29.69,22,4,23,0.43
2013-3-13,51.4,43.2,31.5,37.5,32.6,24.4,93,68,46,30.03,29.87,23,2,23,0.01
2013-3-14,47.7,38.8,29.9,26.6,23.6,20.8,79,55,37,30.12,29.99,29,6,32,0.00
2013-3-15,57.0,40.7,24.1,40.3,28.3,21.1,91,65,34,30.09,29.77,18,1,18,0.00
2013-3-16,59.8,49.0,39.8,54.8,44.1,36.3,94,84,59,29.87,29.58,14,1,16,0.46
2013-3-17,42.4,38.2,36.2,38.8,35.5,34.2,93,90,84,30.25,29.86,9,1,9,0.17
2013-3-18,42.9,37.4,32.8,42.4,36.0,31.3,100,95,92,30.28,29.83,13,1,13,0.75
2013-3-19,59.0,45.2,38.0,45.9,38.7,20.2,96,81,31,29.90,29.70,17,2,17,0.01
2013-3-20,53.9,43.1,28.3,34.1,24.1,17.5,86,51,28,30.00,29.74,24,3,24,0.00
2013-3-21,40.0,35.7,31.0,31.1,24.0,16.2,88,63,44,29.89,29.69,25,5,25,0.00
2013-3-22,47.8,35.4,26.1,29.4,20.1,14.3,83,55,37,29.97,29.87,21,3,21,0.00
2013-3-23,43.2,29.7,24.5,32.2,25.2,22.0,93,84,51,30.02,29.96,13,1,14,0.00
2013-3-24,41.6,35.5,29.7,33.7,29.3,26.4,99,79,57,29.97,29.60,6,1,15,0.03
2013-3-25,37.8,35.4,33.4,35.5,33.8,31.9,95,94,91,29.67,29.46,7,3,16,0.77
2013-3-26,47.3,41.5,32.2,35.9,32.8,29.0,95,73,52,29.96,29.67,16,3,18,0.01
2013-3-27,49.0,41.7,32.6,32.7,30.7,28.3,88,66,48,30.10,29.96,21,4,23,0.00
2013-3-28,49.2,41.0,29.6,34.0,30.5,26.3,92,68,51,30.19,30.07,27,5,27,0.00
2013-3-29,55.0,44.6,34.4,36.6,32.6,30.1,89,64,43,30.24,30.12,19,3,23,0.00
2013-3-30,57.9,44.9,31.2,37.2,33.2,28.9,94,67,38,30.20,30.09,12,1,18,0.00
2013-3-31,56.9,49.8,39.8,54.5,45.5,35.7,96,85,62,30.12,29.73,20,2,21,0.30
2013-4-1,68.0,53.3,41.1,50.2,43.1,31.9,97,72,42,29.94,29.68,23,3,23,0.01
2013-4-2,53.4,42.8,29.4,33.5,27.7,21.1,90,59,29,30.15,29.94,20,3,22,0.00
2013-4-3,53.2,41.1,27.0,33.7,25.1,19.4,92,57,32,30.34,30.15,18,2,20,0.00
2013-4-4,46.7,38.9,26.9,37.9,27.2,19.8,92,65,37,30.40,30.04,18,2,18,0.45
2013-4-5,62.2,47.1,38.6,43.5,38.7,32.5,95,77,35,30.05,29.80,19,2,21,0.62
2013-4-6,52.2,45.5,37.9,36.5,31.9,26.7,91,60,40,30.31,29.98,13,2,14,0.00
2013-4-7,69.2,51.9,36.6,50.2,42.2,34.3,94,72,46,30.30,30.01,24,2,24,0.00
2013-4-8,80.0,66.8,56.3,57.3,53.4,45.9,81,64,42,30.07,29.95,16,2,24,0.00
2013-4-9,85.1,72.6,63.2,61.3,58.1,54.6,78,62,41,30.07,29.95,16,2,16,0.00
2013-4-10,90.3,78.1,66.7,63.7,61.0,58.4,76,57,36,29.98,29.80,20,2,20,0.00
2013-4-11,86.0,75.2,63.8,64.6,62.0,58.5,86,65,46,29.87,29.73,17,2,21,0.00
2013-4-12,79.7,69.0,61.3,69.0,64.5,57.5,95,86,67,29.76,29.53,20,2,23,0.31
2013-4-13,60.9,56.3,51.0,57.8,47.9,43.1,94,74,56,29.92,29.64,18,4,23,0.00
2013-4-14,66.0,56.8,44.1,51.6,46.8,41.3,96,71,46,30.11,29.90,12,1,15,0.00
2013-4-15,62.2,58.2,55.9,53.2,50.9,45.3,87,77,65,30.26,30.09,18,3,18,0.00
2013-4-16,70.3,61.7,52.3,59.6,55.6,50.3,95,81,68,30.28,30.16,18,4,20,0.00
2013-4-17,77.2,66.2,57.9,64.4,60.0,56.2,95,82,59,30.19,30.11,13,2,15,0.00
2013-4-18,76.0,65.9,59.0,64.6,60.1,56.7,95,83,63,30.21,30.02,23,6,31,0.03
2013-4-19,82.2,70.5,62.1,69.0,64.4,59.5,94,82,59,30.03,29.65,26,4,26,0.85
2013-4-20,66.1,54.1,45.7,64.3,44.8,34.7,95,73,46,30.27,29.71,27,2,28,0.50
2013-4-21,53.0,47.9,41.8,42.8,35.3,29.2,93,63,44,30.55,30.27,18,2,23,0.00
2013-4-22,53.7,47.8,36.6,45.5,41.6,33.9,94,79,68,30.53,30.32,16,2,18,0.00
2013-4-23,57.7,50.6,43.7,48.7,45.7,41.4,93,84,68,30.32,30.11,16,2,17,0.00
2013-4-24,75.8,60.0,40.1,59.6,51.5,38.4,97,76,52,30.11,29.84,25,2,25,0.00
2013-4-25,67.6,57.1,44.7,57.7,42.5,31.5,86,59,37,30.27,29.91,19,4,23,0.04
2013-4-26,65.9,55.9,39.3,48.8,41.5,36.1,96,62,36,30.43,30.26,12,2,15,0.00
2013-4-27,66.8,56.2,43.7,50.7,44.5,40.0,95,68,38,30.39,30.28,13,2,15,0.00
2013-4-28,65.8,55.3,42.1,53.3,45.1,37.7,95,72,37,30.28,30.13,17,3,19,0.04
2013-4-29,58.1,56.6,54.8,57.0,55.4,53.2,97,96,93,30.14,29.99,19,4,23,1.49
2013-4-30,59.1,57.2,55.7,58.2,56.1,53.7,98,96,93,30.20,30.02,14,1,14,0.21
2013-5-1,65.8,58.8,53.4,53.8,50.3,43.4,93,75,47,30.37,30.20,12,2,19,0.00
2013-5-2,65.5,57.0,51.2,54.1,51.2,47.9,92,81,64,30.39,30.28,12,1,13,0.00
2013-5-3,61.7,54.5,46.5,51.7,46.7,44.6,96,76,55,30.33,30.25,19,3,23,0.00
2013-5-4,62.9,54.3,48.6,51.8,46.8,40.7,90,76,56,30.28,30.15,14,2,17,0.00
2013-5-5,61.0,54.3,49.0,53.5,48.6,44.0,92,81,69,30.18,30.12,17,3,17,0.00
2013-5-6,66.8,59.1,53.7,61.8,56.8,50.4,96,92,83,30.12,29.99,21,3,24,0.04
2013-5-7,67.5,62.8,59.0,64.0,60.6,57.3,97,93,82,30.00,29.85,21,4,22,0.86
2013-5-8,69.5,60.4,52.7,60.2,56.6,51.6,98,88,61,29.98,29.91,14,1,16,0.52
2013-5-9,75.5,63.9,55.4,64.8,59.0,54.3,97,85,61,29.99,29.90,15,2,16,0.00
2013-5-10,81.7,70.3,56.0,67.1,62.1,54.7,97,77,52,30.00,29.87,16,1,18,0.00
2013-5-11,82.0,73.7,65.8,68.2,65.3,62.8,94,76,57,29.88,29.70,25,2,26,0.05
2013-5-12,69.8,62.4,48.8,63.0,53.3,41.0,96,74,46,30.01,29.71,30,2,34,0.31
2013-5-13,60.4,51.6,39.7,45.5,39.0,34.7,95,66,40,30.13,30.00,18,3,20,0.00
2013-5-14,63.7,51.2,36.2,50.5,40.2,34.4,95,69,37,30.19,30.05,15,2,17,0.00
2013-5-15,85.9,71.2,57.6,67.3,57.7,47.2,78,63,52,30.05,29.71,15,2,18,0.00
2013-5-16,87.8,75.4,63.9,69.7,63.6,60.5,93,69,45,29.89,29.74,16,2,21,0.00
2013-5-17,80.2,70.5,62.5,64.3,57.5,47.5,95,67,35,30.12,29.89,13,1,15,0.00
2013-5-18,65.1,63.8,60.9,62.9,59.7,55.0,93,87,71,30.20,30.12,15,3,16,0.11
2013-5-19,75.0,69.4,64.7,70.2,66.6,62.6,97,91,83,30.16,30.06,11,2,13,0.27
2013-5-20,80.9,72.7,65.6,72.3,68.3,64.4,97,87,72,30.10,29.96,17,1,17,0.00
2013-5-21,81.8,74.3,68.9,73.1,69.4,66.6,94,85,70,30.00,29.88,12,1,12,0.00
2013-5-22,83.5,76.3,70.7,73.9,70.3,68.0,93,82,68,29.95,29.85,16,2,16,0.00
2013-5-23,77.3,72.7,67.8,71.7,69.0,66.2,95,88,80,29.91,29.73,19,2,19,0.22
2013-5-24,69.2,60.8,53.1,67.6,55.2,39.9,96,83,60,30.10,29.73,27,7,29,0.34
2013-5-25,65.7,54.8,44.0,45.8,41.3,36.3,80,61,44,30.16,30.05,25,8,25,0.00
2013-5-26,72.1,57.5,43.2,50.7,43.9,37.5,94,65,33,30.20,30.10,18,3,19,0.00
2013-5-27,75.7,62.4,45.6,60.9,52.4,44.0,96,73,40,30.25,30.15,15,1,15,0.00
2013-5-28,83.9,72.4,59.9,70.2,64.1,55.7,91,76,62,30.18,30.06,18,2,19,0.00
2013-5-29,88.2,78.5,69.4,72.8,68.2,64.5,85,71,56,30.13,30.07,15,1,16,0.00
2013-5-30,89.4,78.6,69.6,73.1,68.8,65.1,91,73,51,30.18,30.11,15,1,15,0.00
2013-5-31,89.1,77.9,66.8,73.3,69.6,64.7,94,77,54,30.17,30.04,15,1,16,0.00
2013-6-1,89.5,80.2,71.0,74.7,71.2,68.0,92,75,57,30.07,29.94,15,1,17,0.00
2013-6-2,87.9,79.0,70.0,73.4,70.0,66.9,94,75,61,29.95,29.84,19,2,27,0.19
2013-6-3,77.3,72.6,69.2,73.2,70.4,67.4,97,93,85,29.90,29.79,13,0,13,0.79
2013-6-4,76.0,68.8,56.7,68.1,57.5,46.2,96,70,39,30.11,29.90,14,2,16,0.01
2013-6-5,76.0,65.5,52.3,63.8,55.6,50.6,96,73,47,30.15,30.07,14,1,16,0.00
2013-6-6,74.0,67.3,56.8,68.0,62.6,54.1,96,85,74,30.07,29.85,21,4,27,0.00
2013-6-7,72.6,70.6,68.7,71.7,69.4,67.7,98,96,88,29.85,29.47,20,3,21,7.46
2013-6-8,77.8,69.0,64.1,70.1,66.5,62.4,98,92,74,30.07,29.66,18,1,18,0.71
2013-6-9,79.7,70.8,60.7,72.4,66.8,59.6,98,88,66,30.15,30.06,15,2,15,0.01
2013-6-10,82.4,75.3,72.6,76.0,73.1,71.7,98,93,78,30.08,29.83,17,2,19,0.30
2013-6-11,83.4,76.5,70.4,72.9,70.5,67.2,95,82,64,29.85,29.76,13,2,15,0.00
2013-6-12,88.4,77.8,65.5,79.0,70.8,64.0,96,81,57,29.87,29.77,16,1,17,0.00
2013-6-13,90.8,76.9,69.0,77.6,72.7,64.0,96,88,58,29.78,29.47,32,2,38,0.86
2013-6-14,75.3,67.1,61.6,64.4,60.0,56.3,92,79,57,29.94,29.57,21,3,30,0.02
2013-6-15,80.0,69.9,57.7,71.5,63.3,56.3,97,81,54,30.05,29.94,12,1,13,0.00
2013-6-16,86.0,75.9,64.1,74.3,69.0,62.9,96,80,63,30.01,29.88,14,1,16,0.00
2013-6-17,82.5,76.2,71.9,74.8,71.6,68.6,92,86,75,29.97,29.88,10,0,12,0.00
2013-6-18,78.1,72.1,65.7,74.3,70.1,63.9,97,93,85,29.92,29.73,17,1,18,2.12
2013-6-19,75.2,69.2,63.7,68.2,65.3,61.6,97,88,74,30.14,29.82,8,0,9,0.00
2013-6-20,75.8,67.0,57.3,64.9,57.7,53.6,99,75,48,30.26,30.13,14,2,15,0.01
2013-6-21,77.5,67.8,53.2,68.6,62.3,51.8,97,83,71,30.27,30.22,15,2,15,0.00
2013-6-22,82.0,73.5,63.6,69.6,65.5,61.5,95,77,57,30.23,30.15,17,2,17,0.00
2013-6-23,85.0,76.5,69.2,76.6,72.4,66.7,97,87,72,30.18,30.07,12,1,13,0.44
2013-6-24,89.5,79.6,72.5,78.1,74.0,70.9,95,84,65,30.12,30.00,15,1,19,0.21
2013-6-25,91.7,81.1,72.5,79.7,74.8,71.0,97,83,56,30.03,29.89,11,1,13,0.00
2013-6-26,91.8,80.9,72.9,80.4,74.7,70.6,95,82,63,29.93,29.78,13,1,14,0.01
2013-6-27,86.3,77.8,70.2,77.3,72.8,68.7,96,85,68,29.83,29.62,17,1,19,0.01
2013-6-28,89.3,80.4,74.1,77.2,73.8,71.0,95,81,62,29.64,29.48,13,1,15,0.00
2013-6-29,87.0,78.1,71.7,77.0,72.7,69.6,94,84,64,29.70,29.52,13,1,18,0.03
2013-6-30,84.0,79.0,75.5,77.3,75.2,73.7,95,88,76,29.85,29.70,13,2,16,0.16
2013-7-1,78.5,75.7,72.4,76.4,74.0,70.9,97,94,89,30.01,29.84,10,1,12,2.46
2013-7-2,85.0,75.6,71.9,76.8,73.1,70.7,97,92,75,30.19,30.00,15,1,20,0.70
2013-7-3,86.5,77.5,71.4,79.1,74.4,70.5,98,91,73,30.23,30.16,16,1,17,0.00
2013-7-4,87.8,79.7,74.2,78.7,74.9,72.7,96,86,68,30.28,30.18,15,2,15,0.00
2013-7-5,89.0,80.8,71.6,77.9,74.7,70.0,97,83,63,30.24,30.13,13,1,15,0.00
2013-7-6,90.1,82.3,75.6,79.0,75.8,73.2,94,82,63,30.20,30.08,14,1,14,0.00
2013-7-7,89.3,82.0,74.3,78.7,75.5,72.7,95,81,66,30.11,29.99,14,1,15,0.00
2013-7-8,85.0,78.6,74.8,77.7,74.6,72.5,95,88,71,30.11,30.03,13,1,15,0.05
2013-7-9,88.8,79.4,73.7,81.2,75.6,72.4,96,89,70,30.10,29.99,12,0,12,0.09
2013-7-10,88.0,79.3,75.0,80.2,76.1,73.4,96,90,76,30.02,29.88,13,1,18,0.66
2013-7-11,79.8,75.8,72.9,75.3,73.4,71.7,97,92,81,29.92,29.85,12,1,15,0.09
2013-7-12,77.5,74.0,70.9,73.1,72.0,69.3,97,94,85,30.00,29.85,10,1,12,0.28
2013-7-13,84.2,76.4,67.7,77.6,73.1,66.8,98,90,78,30.24,30.00,17,2,23,0.00
2013-7-14,86.7,80.0,73.0,77.7,74.6,71.6,98,84,63,30.31,30.24,12,2,13,0.00
2013-7-15,91.9,80.8,71.2,82.4,75.4,70.0,98,85,63,30.30,30.17,11,1,12,0.00
2013-7-16,91.8,83.0,74.5,80.3,75.7,71.1,96,80,54,30.19,30.12,13,1,18,0.00
2013-7-17,94.7,83.0,72.2,79.4,75.0,70.8,97,79,52,30.17,30.07,7,0,10,0.00
2013-7-18,96.0,84.8,74.5,82.9,77.6,73.3,97,81,55,30.10,29.98,10,0,10,0.00
2013-7-19,93.2,85.6,77.1,82.7,78.7,74.9,95,81,67,30.01,29.88,13,1,13,0.00
2013-7-20,92.3,84.6,78.7,82.2,77.5,74.3,89,80,67,29.90,29.80,16,2,18,0.00
2013-7-21,90.1,81.4,74.1,80.4,76.4,72.7,97,86,69,29.92,29.83,18,1,19,0.80
2013-7-22,87.6,78.2,70.3,79.2,74.5,69.4,98,89,72,29.91,29.76,12,0,13,0.02
2013-7-23,88.0,80.9,74.8,79.8,75.8,73.6,97,85,67,29.77,29.62,16,2,16,0.00
2013-7-24,85.6,79.7,73.0,78.5,73.5,70.6,97,82,67,29.83,29.64,14,1,17,0.00
2013-7-25,79.3,73.6,69.7,72.1,67.1,63.1,89,80,72,29.98,29.82,15,2,15,0.00
2013-7-26,81.4,72.3,63.8,71.0,66.6,62.3,96,83,62,30.06,29.97,10,1,13,0.00
2013-7-27,83.3,74.1,65.2,72.3,68.5,64.0,97,83,62,30.04,29.92,15,2,16,0.01
2013-7-28,85.8,76.5,68.8,76.8,71.5,66.9,97,85,69,29.96,29.85,14,1,15,1.17
2013-7-29,82.0,73.7,65.9,71.0,67.1,60.2,98,82,53,30.13,29.93,14,1,14,0.05
2013-7-30,81.3,71.6,61.7,70.1,64.9,60.5,97,81,59,30.19,30.13,8,0,10,0.01
2013-7-31,81.5,72.4,62.8,71.8,67.2,61.3,97,85,64,30.13,30.01,17,1,17,0.00
2013-8-1,79.6,74.5,70.7,74.6,72.2,69.3,97,93,83,30.02,29.79,12,1,16,0.09
2013-8-2,86.7,77.0,67.7,75.6,70.1,65.2,97,81,54,29.95,29.83,11,1,11,0.00
2013-8-3,86.1,76.1,69.0,74.4,70.5,67.5,95,84,57,29.95,29.88,7,0,10,0.00
2013-8-4,80.5,73.7,64.2,69.3,64.8,59.5,96,75,50,30.00,29.86,24,3,24,0.00
2013-8-5,79.0,69.5,59.6,65.9,62.0,57.9,96,79,55,30.08,29.99,10,0,10,0.00
2013-8-6,70.7,68.0,64.3,68.9,66.1,61.9,96,94,89,30.07,29.99,14,1,16,0.87
2013-8-7,84.1,75.4,68.5,75.1,71.0,67.3,98,87,66,30.07,30.00,16,2,17,0.01
2013-8-8,85.8,78.7,73.8,77.6,74.3,71.4,94,87,70,30.05,29.98,16,2,16,0.00
2013-8-9,91.2,82.6,76.6,80.8,77.0,74.7,95,84,70,29.98,29.84,16,1,19,0.00
2013-8-10,86.2,78.4,71.8,76.2,73.7,70.1,97,86,63,30.07,29.92,9,0,10,0.05
2013-8-11,80.8,75.3,70.0,75.2,71.7,68.8,98,89,70,30.10,29.99,8,0,10,0.04
2013-8-12,87.1,78.7,72.6,77.3,74.5,71.7,98,88,69,30.00,29.89,7,0,14,0.00
2013-8-13,85.7,78.8,74.1,76.3,74.7,72.1,97,88,66,29.89,29.73,15,1,16,0.01
2013-8-14,74.7,69.7,59.1,73.1,59.9,51.3,95,72,57,30.07,29.75,31,5,31,0.00
2013-8-15,75.4,65.4,57.5,63.9,59.1,55.5,98,82,56,30.14,30.06,6,0,7,0.00
2013-8-16,75.8,66.7,55.7,66.5,59.7,54.3,97,80,54,30.17,30.09,11,0,11,0.01
2013-8-17,77.1,70.7,62.5,68.8,65.3,60.8,96,84,67,30.22,30.13,13,1,15,0.05
2013-8-18,69.6,68.0,66.8,68.0,66.6,65.4,97,95,92,30.18,30.11,15,1,15,0.63
2013-8-19,72.2,68.4,64.4,70.1,67.1,63.5,98,96,91,30.17,30.07,9,0,9,0.09
2013-8-20,82.0,73.4,66.5,74.8,70.4,65.3,99,91,77,30.16,30.07,11,0,11,0.00
2013-8-21,85.3,76.2,67.9,76.9,72.2,67.0,99,88,66,30.19,30.07,14,1,14,0.03
2013-8-22,87.8,78.3,71.7,76.3,73.1,70.4,97,85,60,30.11,29.92,14,1,14,0.00
2013-8-23,80.4,72.9,65.4,73.8,69.7,61.9,97,90,71,30.07,29.90,11,0,12,0.26
2013-8-24,81.5,71.2,60.8,70.6,64.7,59.6,98,81,56,30.31,30.07,12,1,13,0.00
2013-8-25,77.4,68.3,58.3,65.8,61.1,56.2,97,80,55,30.39,30.27,11,0,11,0.01
2013-8-26,83.8,69.4,56.0,70.8,62.7,54.9,97,81,58,30.30,30.02,12,1,13,0.01
2013-8-27,87.6,76.4,66.5,77.5,69.5,61.9,93,80,66,30.02,29.86,17,1,18,0.00
2013-8-28,81.8,75.6,73.0,76.2,73.2,71.6,97,92,79,29.90,29.81,12,0,12,0.14
2013-8-29,83.0,75.3,68.5,73.9,71.6,66.6,97,89,71,30.00,29.78,13,1,14,0.02
2013-8-30,82.8,72.8,64.0,73.9,68.8,63.0,98,88,68,30.04,29.91,13,1,13,0.01
2013-8-31,86.7,78.2,70.0,75.3,72.2,68.3,96,82,68,29.93,29.81,16,1,17,0.00
2013-9-1,89.7,80.1,73.8,80.0,74.7,71.0,95,84,68,29.85,29.74,12,0,12,0.00
2013-9-2,88.3,78.3,73.3,78.7,74.0,71.5,95,87,70,29.80,29.73,11,1,11,0.00
2013-9-3,83.5,76.7,68.3,73.8,71.1,66.3,96,84,63,29.91,29.72,14,2,16,0.00
2013-9-4,81.9,72.2,64.6,68.9,63.8,59.8,95,76,54,30.06,29.91,16,1,16,0.00
2013-9-5,85.7,73.4,62.4,71.2,65.1,60.5,97,78,51,30.07,29.96,13,1,13,0.01
2013-9-6,75.8,69.7,61.6,64.0,59.9,54.7,93,72,55,30.20,30.06,15,1,15,0.00
2013-9-7,77.9,66.8,55.6,66.7,60.6,54.1,97,82,58,30.12,29.93,12,0,12,0.00
2013-9-8,86.5,73.1,62.3,72.3,66.1,60.8,96,81,55,29.99,29.84,10,0,11,0.01
2013-9-9,78.4,73.6,69.6,71.4,67.4,61.0,95,81,68,30.15,29.99,11,1,11,0.00
2013-9-10,89.7,77.9,68.2,77.1,72.3,66.7,97,84,63,30.18,30.08,15,1,18,0.00
2013-9-11,90.7,79.7,71.7,75.5,73.0,69.8,94,81,59,30.14,30.02,17,1,17,0.00
2013-9-12,89.6,78.8,71.5,77.1,72.6,69.3,97,83,63,30.02,29.72,16,1,18,1.42
2013-9-13,77.6,71.6,63.7,70.6,64.9,56.5,98,81,53,29.86,29.67,23,3,23,0.01
2013-9-14,69.4,62.9,52.3,57.6,53.9,50.2,93,73,55,30.13,29.86,19,3,19,0.00
2013-9-15,75.4,61.9,48.7,62.0,54.8,47.2,97,80,52,30.22,30.09,20,0,20,0.01
2013-9-16,75.3,66.9,58.9,67.3,62.7,56.9,95,87,72,30.18,30.05,19,2,19,0.00
2013-9-17,65.9,60.4,52.5,58.0,54.0,50.0,96,80,61,30.37,30.17,16,2,16,0.00
2013-9-18,68.6,57.4,45.3,57.7,51.8,44.0,96,83,59,30.31,30.17,8,0,8,0.01
2013-9-19,72.0,60.6,48.7,61.2,54.6,47.3,97,82,59,30.18,30.08,14,1,14,0.01
2013-9-20,74.8,63.7,52.7,63.7,58.4,51.3,97,84,63,30.08,29.96,12,1,13,0.00
2013-9-21,78.3,67.4,55.9,68.7,62.8,54.8,97,86,64,29.97,29.70,20,2,20,0.51
2013-9-22,73.1,66.0,56.4,65.8,60.8,54.7,97,85,56,29.88,29.70,18,2,18,0.25
2013-9-23,64.1,59.0,48.2,56.9,50.5,46.3,95,74,60,30.05,29.88,17,2,17,0.00
2013-9-24,70.8,56.9,45.8,57.7,51.1,44.5,98,83,57,30.07,29.92,14,1,14,0.01
2013-9-25,74.8,59.9,48.0,61.0,53.9,46.6,99,83,49,29.95,29.85,10,0,10,0.01
2013-9-26,72.8,63.7,55.7,62.6,57.9,54.3,97,83,62,30.04,29.86,13,1,13,0.00
2013-9-27,71.0,61.7,54.0,59.6,55.9,52.6,97,83,62,30.20,30.03,14,1,15,0.00
2013-9-28,70.4,61.8,54.6,61.3,57.1,53.1,97,85,67,30.25,30.16,12,1,12,0.01
2013-9-29,72.3,61.8,52.6,62.6,57.0,51.2,98,86,61,30.16,30.02,14,1,14,0.01
2013-9-30,73.2,59.9,48.5,60.0,53.7,47.1,97,82,54,30.06,29.97,11,0,11,0.01
2013-10-1,80.5,64.7,52.0,65.5,58.4,50.9,97,82,54,30.06,29.95,12,1,12,0.00
2013-10-2,83.9,68.3,56.6,68.2,61.9,55.5,97,82,52,30.07,29.99,12,0,13,0.01
2013-10-3,83.3,69.4,58.3,69.4,63.6,57.2,97,84,53,30.09,30.03,9,0,9,0.00
2013-10-4,85.5,71.4,63.1,71.0,66.5,61.9,97,86,58,30.07,29.99,10,0,10,0.01
2013-10-5,87.7,73.1,62.7,71.9,66.9,61.5,97,83,56,30.07,30.00,10,0,10,0.00
2013-10-6,84.9,74.1,65.1,71.8,68.3,63.9,97,83,61,30.03,29.94,17,2,17,0.00
2013-10-7,82.3,71.7,61.9,72.9,68.1,54.4,97,89,70,30.01,29.80,22,2,22,1.37
2013-10-8,63.6,62.0,60.0,54.9,52.1,49.2,78,70,64,30.22,30.01,14,2,14,0.00
2013-10-9,62.9,60.9,58.5,58.5,56.6,51.4,95,86,67,30.21,30.06,17,2,18,1.58
2013-10-10,63.4,61.4,59.3,62.5,60.4,57.9,98,97,95,30.07,29.85,17,4,17,1.34
2013-10-11,66.7,64.5,61.8,66.1,63.8,60.9,98,98,97,29.90,29.82,13,2,17,0.88
2013-10-12,67.2,65.2,63.8,66.5,64.4,62.6,98,97,96,30.06,29.88,14,2,14,0.42
2013-10-13,66.6,65.0,62.7,65.7,63.0,59.7,97,93,88,30.26,30.06,14,2,14,0.06
2013-10-14,67.9,62.8,55.2,61.8,59.3,53.5,94,88,77,30.27,30.18,13,1,13,0.00
2013-10-15,64.5,59.1,50.5,61.5,57.0,49.4,100,93,85,30.20,30.05,9,0,11,0.01
2013-10-16,71.2,65.0,61.5,65.1,62.3,59.6,97,91,79,30.05,29.92,7,0,7,0.00
2013-10-17,75.3,67.6,60.5,67.3,64.1,59.7,98,89,72,29.92,29.76,13,0,13,0.01
2013-10-18,69.6,61.1,49.7,64.9,52.2,46.8,94,74,50,30.01,29.78,15,1,15,0.00
2013-10-19,64.2,58.3,49.5,62.4,56.6,48.0,98,94,81,29.99,29.77,10,0,10,0.03
2013-10-20,62.4,54.8,43.4,61.0,46.0,40.5,96,74,47,30.10,29.83,14,1,16,0.00
2013-10-21,64.7,51.1,38.8,52.8,45.3,37.4,100,83,50,30.15,29.97,15,1,15,0.01
2013-10-22,68.3,56.5,49.0,58.3,52.6,47.6,96,88,63,29.97,29.77,8,0,9,0.00
2013-10-23,58.4,53.8,46.7,54.7,46.6,40.7,96,77,60,29.89,29.61,16,2,17,0.00
2013-10-24,53.9,46.0,37.1,42.4,37.9,34.0,92,75,50,30.12,29.88,17,2,17,0.00
2013-10-25,55.4,42.2,32.3,40.3,35.2,30.6,95,78,50,30.31,30.11,19,2,19,0.01
2013-10-26,58.0,44.1,30.0,42.4,34.6,28.5,96,73,42,30.30,29.96,19,1,19,0.00
2013-10-27,62.5,49.6,36.5,47.3,40.4,34.2,93,73,46,30.12,29.94,12,0,14,0.00
2013-10-28,64.2,49.5,37.3,55.0,45.7,35.8,97,88,63,30.24,30.11,7,0,7,0.00
2013-10-29,64.0,51.2,42.2,54.0,45.8,40.9,97,84,50,30.33,30.23,7,0,7,0.01
2013-10-30,66.9,56.0,46.6,59.8,53.1,45.0,98,90,77,30.30,30.13,10,0,10,0.00
2013-10-31,70.5,62.2,51.9,65.1,58.6,50.8,98,88,76,30.17,29.85,12,1,13,0.00
2013-11-1,73.8,70.0,67.9,66.6,65.5,63.7,94,86,78,29.86,29.61,22,2,22,0.02
2013-11-2,69.8,62.9,56.6,66.1,54.9,43.8,96,77,51,29.87,29.60,17,1,17,0.00
2013-11-3,57.1,50.3,36.8,46.0,41.1,34.6,93,72,51,30.39,29.86,22,2,25,0.00
2013-11-4,47.5,42.0,36.0,38.8,33.9,30.0,94,73,56,30.58,30.38,13,1,16,0.00
2013-11-5,59.7,49.5,38.2,51.8,45.6,36.4,100,87,70,30.56,30.43,9,0,10,0.00
2013-11-6,64.8,57.2,45.7,57.2,52.4,43.8,97,85,68,30.44,30.08,15,2,15,0.00
2013-11-7,65.8,58.6,49.3,62.8,53.9,35.6,97,85,60,30.08,29.81,22,2,23,0.15
2013-11-8,52.8,43.3,31.7,37.2,32.3,29.0,90,67,45,30.30,30.03,26,3,31,0.00
2013-11-9,55.4,42.7,28.4,38.6,33.2,26.6,95,72,45,30.35,30.05,14,0,14,0.00
2013-11-10,66.0,53.8,41.8,43.6,37.1,31.8,77,55,37,30.21,29.92,19,3,21,0.00
2013-11-11,56.0,45.8,33.4,40.9,35.1,28.7,89,67,48,30.29,30.05,11,0,14,0.00
2013-11-12,51.7,44.3,37.2,42.7,31.0,18.0,82,60,45,30.36,29.93,20,3,25,0.01
2013-11-13,41.8,35.1,25.7,26.6,23.5,19.7,86,63,49,30.45,30.35,24,3,26,0.00
2013-11-14,56.3,36.3,23.8,35.5,26.5,21.4,93,72,33,30.39,30.25,13,0,13,0.00
2013-11-15,57.9,45.2,30.7,42.8,34.5,28.1,90,69,39,30.28,30.18,13,1,13,0.00
2013-11-16,58.4,52.7,48.0,54.7,50.6,42.2,97,92,81,30.29,30.20,9,0,9,0.82
2013-11-17,65.3,57.6,50.1,61.8,55.6,49.0,98,93,78,30.21,29.79,11,1,13,0.01
2013-11-18,69.2,59.8,43.9,65.9,51.6,37.6,96,77,37,29.87,29.70,26,2,28,0.16
2013-11-19,52.7,46.4,36.8,38.2,33.4,31.1,86,61,52,30.31,29.87,24,3,25,0.00
2013-11-20,46.7,41.2,35.0,37.0,33.0,28.3,93,73,59,30.51,30.31,13,1,13,0.00
2013-11-21,55.1,44.4,34.4,48.7,41.2,32.9,96,89,76,30.50,30.35,5,0,6,0.00
2013-11-22,68.2,55.5,39.2,59.6,52.5,37.9,100,90,69,30.37,29.97,18,1,18,0.03
2013-11-23,59.5,48.4,36.6,57.8,37.6,25.0,95,67,44,30.12,29.97,23,2,23,0.00
2013-11-24,38.6,30.6,26.9,25.9,14.1,9.7,63,50,42,30.50,30.11,33,6,33,0.00
2013-11-25,36.2,28.7,21.2,23.4,15.4,10.8,74,58,40,30.57,30.34,13,1,13,0.00
2013-11-26,60.0,42.3,33.5,59.0,36.7,19.4,97,81,54,30.37,29.52,33,3,33,1.03
2013-11-27,64.7,43.0,33.4,63.5,39.7,22.7,97,88,60,30.03,29.43,31,6,31,0.96
2013-11-28,38.6,31.3,24.5,25.0,19.9,15.7,92,63,48,30.47,30.03,22,2,22,0.00
2013-11-29,42.0,30.7,22.3,31.9,24.7,20.3,100,80,54,30.67,30.45,14,0,14,0.01
2013-11-30,41.2,33.6,25.8,32.0,28.2,23.8,94,81,66,30.66,30.35,11,0,11,0.00
2013-12-1,48.9,33.8,25.0,38.3,29.6,23.2,100,86,59,30.35,30.00,9,0,9,0.00
2013-12-2,53.6,36.7,27.2,45.7,33.1,25.7,97,88,61,30.00,29.82,9,0,9,0.01
2013-12-3,56.8,42.7,30.6,45.7,37.6,29.1,97,84,55,29.99,29.84,10,0,10,0.00
2013-12-4,57.5,49.2,37.5,54.0,47.1,35.9,96,92,86,30.07,29.99,12,0,12,0.00
2013-12-5,63.6,57.3,46.4,62.1,56.0,45.2,98,95,90,30.08,29.95,11,0,12,0.05
2013-12-6,68.3,57.2,43.8,64.3,54.9,42.3,95,92,85,30.08,29.91,14,1,14,0.01
2013-12-7,44.1,40.6,35.9,42.3,36.0,28.5,95,84,71,30.49,30.06,16,2,16,0.36
2013-12-8,36.4,34.6,32.8,35.4,31.3,27.4,96,88,72,30.53,30.22,10,1,11,1.11
2013-12-9,40.3,37.1,33.9,39.2,36.0,32.9,97,96,96,30.23,30.01,10,1,10,0.32
2013-12-10,38.1,35.3,28.9,37.1,34.0,27.5,96,95,91,30.23,29.92,11,1,12,0.28
2013-12-11,43.2,31.0,23.2,32.9,26.5,22.0,96,85,50,30.40,30.22,9,0,10,0.01
2013-12-12,33.3,28.4,20.9,29.5,20.6,15.6,95,74,51,30.40,30.21,18,1,19,0.00
2013-12-13,44.8,30.1,20.7,28.0,22.0,18.0,91,74,42,30.30,30.21,12,1,13,0.00
2013-12-14,55.3,39.8,28.8,54.7,37.2,25.7,98,91,71,30.29,29.65,18,1,20,1.02
2013-12-15,49.1,40.1,29.0,45.0,37.3,27.2,97,90,67,29.95,29.61,15,1,15,0.02
2013-12-16,41.3,33.2,27.1,33.9,29.8,25.6,95,88,68,30.17,29.94,7,0,7,0.01
2013-12-17,53.0,40.9,31.7,42.6,36.7,30.2,100,86,63,30.12,29.88,11,0,13,0.31
2013-12-18,43.0,35.1,27.2,36.7,30.1,25.2,95,83,57,30.22,29.93,18,1,18,0.08
2013-12-19,58.6,43.4,26.7,35.9,30.7,24.8,94,65,39,30.21,30.10,18,1,19,0.01
2013-12-20,62.9,56.0,49.2,54.6,45.6,32.6,84,69,50,30.15,30.02,17,1,18,0.00
2013-12-21,69.7,63.3,56.5,63.8,55.9,50.4,89,77,68,30.07,29.95,20,2,20,0.00
2013-12-22,75.8,67.0,61.7,68.2,63.5,60.3,96,89,76,30.06,29.91,33,2,33,0.37
2013-12-23,66.4,59.0,43.5,65.5,57.1,36.0,97,93,79,30.16,29.92,21,1,25,0.78
2013-12-24,43.5,38.3,28.7,36.7,27.7,13.8,77,66,50,30.43,30.12,21,3,23,0.00
2013-12-25,32.6,27.0,21.3,23.0,18.1,14.2,90,69,55,30.54,30.38,13,1,13,0.00
2013-12-26,47.1,30.2,19.7,30.9,23.4,17.5,93,78,45,30.39,30.19,14,1,14,0.00
2013-12-27,47.7,32.5,22.9,34.7,26.6,21.0,94,81,47,30.43,30.32,10,0,10,0.00
2013-12-28,57.0,39.6,25.7,37.3,30.5,23.9,94,73,40,30.34,30.11,14,0,17,0.01
2013-12-29,61.7,48.5,41.5,60.8,45.2,33.4,98,89,57,30.12,29.49,15,2,22,1.31
2013-12-30,49.2,40.5,33.4,45.3,36.0,29.2,97,85,71,30.14,29.82,12,1,12,0.01
2013-12-31,48.4,37.2,27.9,33.6,28.2,25.1,90,71,44,30.33,30.10,21,2,23,0.00
2014-1-1,47.5,33.9,24.9,38.4,29.2,22.6,94,84,65,30.40,30.12,14,1,14,0.00
2014-1-2,42.8,35.2,28.5,38.6,33.3,27.0,100,93,81,30.12,29.50,9,0,9,0.56